createdAt,value
2023-03-15T00:02:52.054Z,4.22
2023-03-15T00:07:54.696Z,4.10
2023-03-15T00:12:57.433Z,3.23
2023-03-15T00:18:00.088Z,2.80
2023-03-15T00:23:02.767Z,2.07
2023-03-15T00:28:05.931Z,2.22
2023-03-15T00:33:09.494Z,1.95
2023-03-15T00:38:13.846Z,1.70
2023-03-15T00:43:18.238Z,1.35
2023-03-15T00:48:20.801Z,1.20
2023-03-15T00:53:23.571Z,1.48
2023-03-15T00:58:27.558Z,1.48
2023-03-15T01:03:30.483Z,2.60
2023-03-15T01:08:33.367Z,2.47
2023-03-15T01:13:37.109Z,2.10
2023-03-15T01:18:40.024Z,3.40
2023-03-15T01:23:43.060Z,2.90
2023-03-15T01:28:46.045Z,2.73
2023-03-15T01:33:48.865Z,2.97
2023-03-15T01:38:51.912Z,3.13
2023-03-15T01:43:59.839Z,2.70
2023-03-15T01:49:20.311Z,2.80
2023-03-15T01:54:31.201Z,1.30
2023-03-15T01:59:46.141Z,1.00
2023-03-15T02:05:05.023Z,1.43
2023-03-15T02:10:11.574Z,0.88
2023-03-15T02:15:16.324Z,1.17
2023-03-15T02:20:48.559Z,1.43
2023-03-15T02:26:21.990Z,1.58
2023-03-15T02:31:25.258Z,1.20
2023-03-15T02:36:30.264Z,1.10
2023-03-15T02:41:37.642Z,0.90
2023-03-15T02:46:41.785Z,0.97
2023-03-15T02:51:44.649Z,0.85
2023-03-15T02:56:47.364Z,0.83
2023-03-15T03:01:50.182Z,1.05
2023-03-15T03:06:53.825Z,1.00
2023-03-15T03:12:00.047Z,1.87
2023-03-15T03:17:03.542Z,2.58
2023-03-15T03:22:07.167Z,1.93
2023-03-15T03:27:09.992Z,1.48
2023-03-15T03:32:14.289Z,1.23
2023-03-15T03:37:21.288Z,1.00
2023-03-15T03:42:32.752Z,1.15
2023-03-15T03:47:35.395Z,1.40
2023-03-15T03:52:38.134Z,1.27
2023-03-15T03:57:48.010Z,1.83
2023-03-15T04:02:59.862Z,1.30
2023-03-15T04:08:03.290Z,1.83
2023-03-15T04:13:11.949Z,1.33
2023-03-15T04:18:15.913Z,2.53
2023-03-15T04:23:24.403Z,1.98
2023-03-15T04:28:34.955Z,2.10
2023-03-15T04:33:56.915Z,1.58
2023-03-15T04:39:32.086Z,1.83
2023-03-15T04:44:54.317Z,1.40
2023-03-15T04:50:17.620Z,1.20
2023-03-15T04:55:40.848Z,1.60
2023-03-15T05:00:54.454Z,1.30
2023-03-15T05:06:26.556Z,1.03
2023-03-15T05:11:49.677Z,1.52
2023-03-15T05:17:16.109Z,1.85
2023-03-15T05:22:30.405Z,1.20
2023-03-15T05:27:53.189Z,2.15
2023-03-15T05:33:05.994Z,1.37
2023-03-15T05:38:21.241Z,1.88
2023-03-15T05:43:42.485Z,1.88
2023-03-15T05:48:57.690Z,1.40
2023-03-15T05:54:13.126Z,1.48
2023-03-15T05:59:41.955Z,1.47
2023-03-15T06:05:07.701Z,2.38
2023-03-15T06:10:11.913Z,2.53
2023-03-15T06:15:14.919Z,1.77
2023-03-15T06:20:18.025Z,2.55
2023-03-15T06:25:21.273Z,1.93
2023-03-15T06:30:24.270Z,2.53
2023-03-15T06:35:31.964Z,2.78
2023-03-15T06:40:35.203Z,2.10
2023-03-15T06:45:37.999Z,2.03
2023-03-15T06:50:47.211Z,3.03
2023-03-15T06:55:52.613Z,2.00
2023-03-15T07:00:55.401Z,2.15
2023-03-15T07:05:58.322Z,1.47
2023-03-15T07:11:02.569Z,2.00
2023-03-15T07:16:05.685Z,2.13
2023-03-15T07:21:08.588Z,2.17
2023-03-15T07:26:11.829Z,1.63
2023-03-15T07:31:15.431Z,2.23
2023-03-15T07:36:18.238Z,2.30
2023-03-15T07:41:21.137Z,1.90
2023-03-15T07:46:34.198Z,1.80
2023-03-15T07:51:37.079Z,3.13
2023-03-15T07:56:40.014Z,1.90
2023-03-15T08:01:42.848Z,2.30
2023-03-15T08:06:45.724Z,2.57
2023-03-15T08:11:48.714Z,2.35
2023-03-15T08:17:47.644Z,2.28
2023-03-15T08:23:02.403Z,2.40
2023-03-15T08:28:05.634Z,3.00
2023-03-15T08:33:09.354Z,2.70
2023-03-15T08:38:13.021Z,1.70
2023-03-15T08:43:16.008Z,2.05
2023-03-15T08:48:18.745Z,1.97
2023-03-15T08:53:22.036Z,2.33
2023-03-15T08:58:25.266Z,1.97
2023-03-15T09:03:28.385Z,2.20
2023-03-15T09:08:33.695Z,2.22
2023-03-15T09:13:36.806Z,2.50
2023-03-15T09:18:41.293Z,1.60
2023-03-15T09:23:44.205Z,2.03
2023-03-15T09:28:47.324Z,1.98
2023-03-15T09:33:50.178Z,1.70
2023-03-15T09:38:52.898Z,2.40
2023-03-15T09:44:17.299Z,1.33
2023-03-15T09:49:52.462Z,1.47
2023-03-15T09:55:23.825Z,2.05
2023-03-15T10:00:45.875Z,1.90
2023-03-15T10:05:54.797Z,1.70
2023-03-15T10:11:20.672Z,1.83
2023-03-15T10:16:23.321Z,1.57
2023-03-15T10:21:50.585Z,2.10
2023-03-15T10:26:54.425Z,1.70
2023-03-15T10:31:57.564Z,2.17
2023-03-15T10:37:00.316Z,1.55
2023-03-15T10:42:04.138Z,1.70
2023-03-15T10:47:23.685Z,1.40
2023-03-15T10:52:40.166Z,2.20
2023-03-15T10:57:57.076Z,1.00
2023-03-15T11:03:20.652Z,1.60
2023-03-15T11:08:45.486Z,1.40
2023-03-15T11:14:01.408Z,0.80
2023-03-15T11:19:12.281Z,1.02
2023-03-15T11:24:30.094Z,1.43
2023-03-15T11:29:38.450Z,1.30
2023-03-15T11:34:56.545Z,1.53
2023-03-15T11:40:12.145Z,1.10
2023-03-15T11:45:53.953Z,1.50
2023-03-15T11:51:20.158Z,1.63
2023-03-15T11:56:29.428Z,1.70
2023-03-15T12:01:35.165Z,1.70
2023-03-15T12:06:39.136Z,1.83
2023-03-15T12:11:43.360Z,1.92
2023-03-15T12:16:47.358Z,1.50
2023-03-15T12:21:57.679Z,2.08
2023-03-15T12:27:06.947Z,1.90
2023-03-15T12:32:15.293Z,1.60
2023-03-15T12:37:18.467Z,1.48
2023-03-15T12:42:31.583Z,1.60
2023-03-15T12:47:51.101Z,1.55
2023-03-15T12:53:01.332Z,1.57
2023-03-15T12:58:05.222Z,1.40
2023-03-15T13:03:16.958Z,1.00
2023-03-15T13:08:26.434Z,1.30
2023-03-15T13:14:14.314Z,1.65
2023-03-15T13:19:19.513Z,1.57
2023-03-15T13:24:33.748Z,1.55
2023-03-15T13:29:37.227Z,1.25
2023-03-15T13:34:41.309Z,2.03
2023-03-15T13:40:01.597Z,1.50
2023-03-15T13:45:12.099Z,2.20
2023-03-15T13:50:21.865Z,1.35
2023-03-15T13:55:28.886Z,1.17
2023-03-15T14:00:34.295Z,1.23
2023-03-15T14:05:48.699Z,1.88
2023-03-15T14:11:21.278Z,1.30
2023-03-15T14:17:01.127Z,1.30
2023-03-15T14:22:18.579Z,1.98
2023-03-15T14:27:27.164Z,1.30
2023-03-15T14:32:33.220Z,1.55
2023-03-15T14:37:39.845Z,2.90
2023-03-15T14:42:43.959Z,2.05
2023-03-15T14:47:57.198Z,1.20
2023-03-15T14:53:01.063Z,3.37
2023-03-15T14:58:18.411Z,1.88
2023-03-15T15:03:36.127Z,3.47
2023-03-15T15:08:42.041Z,3.00
2023-03-15T15:13:45.437Z,2.80
2023-03-15T15:18:48.931Z,1.47
2023-03-15T15:23:58.329Z,1.48
2023-03-15T15:29:02.098Z,0.97
2023-03-15T15:34:05.517Z,2.20
2023-03-15T15:39:15.790Z,1.38
2023-03-15T15:44:21.528Z,2.00
2023-03-15T15:49:24.880Z,1.75
2023-03-15T15:54:30.889Z,2.00
2023-03-15T15:59:34.409Z,1.48
2023-03-15T16:04:37.355Z,1.75
2023-03-15T16:09:40.790Z,1.67
2023-03-15T16:14:44.083Z,2.13
2023-03-15T16:19:46.855Z,2.70
2023-03-15T16:24:53.485Z,2.17
2023-03-15T16:29:56.901Z,2.60
2023-03-15T16:35:01.310Z,1.70
2023-03-15T16:40:10.185Z,3.15
2023-03-15T16:45:14.287Z,2.93
2023-03-15T16:50:19.182Z,2.97
2023-03-15T16:55:27.531Z,3.15
2023-03-15T17:00:31.937Z,3.07
2023-03-15T17:05:34.815Z,2.95
2023-03-15T17:10:37.464Z,3.10
2023-03-15T17:15:40.547Z,2.80
2023-03-15T17:20:43.429Z,4.40
2023-03-15T17:25:46.654Z,4.30
2023-03-15T17:30:51.566Z,4.28
2023-03-15T17:35:58.983Z,5.83
2023-03-15T17:41:03.090Z,5.95
2023-03-15T17:46:06.077Z,10.43
2023-03-15T17:51:12.791Z,12.93
2023-03-15T17:56:15.942Z,13.95
2023-03-15T18:01:21.397Z,15.53
2023-03-15T18:06:24.590Z,14.13
2023-03-15T18:11:34.081Z,13.63
2023-03-15T18:16:37.297Z,11.67
2023-03-15T18:21:40.359Z,8.20
2023-03-15T18:26:43.491Z,6.27
2023-03-15T18:31:46.277Z,7.05
2023-03-15T18:36:49.414Z,6.78
2023-03-15T18:41:52.293Z,7.33
2023-03-15T18:46:55.425Z,6.97
2023-03-15T18:51:58.344Z,6.27
2023-03-15T18:57:01.911Z,5.60
2023-03-15T19:02:05.201Z,6.35
2023-03-15T19:07:08.024Z,6.83
2023-03-15T19:12:11.656Z,7.03
2023-03-15T19:17:14.526Z,5.90
2023-03-15T19:22:17.572Z,6.90
2023-03-15T19:27:20.448Z,7.20
2023-03-15T19:32:24.712Z,10.70
2023-03-15T19:37:27.740Z,8.10
2023-03-15T19:42:31.169Z,8.70
2023-03-15T19:47:34.378Z,8.38
2023-03-15T19:52:40.200Z,8.93
2023-03-15T19:57:43.253Z,7.80
2023-03-15T20:02:46.320Z,10.23
2023-03-15T20:07:51.592Z,9.47
2023-03-15T20:12:59.325Z,10.50
2023-03-15T20:18:02.781Z,10.68
2023-03-15T20:23:05.447Z,10.50
2023-03-15T20:28:08.386Z,10.45
2023-03-15T20:33:11.249Z,10.50
2023-03-15T20:38:14.098Z,10.70
2023-03-15T20:43:16.699Z,11.07
2023-03-15T20:48:22.430Z,11.47
2023-03-15T20:53:25.811Z,10.25
2023-03-15T20:58:29.354Z,9.73
2023-03-15T21:03:34.484Z,11.35
2023-03-15T21:08:38.142Z,10.90
2023-03-15T21:13:41.175Z,10.77
2023-03-15T21:18:45.330Z,10.98
2023-03-15T21:23:48.244Z,12.80
2023-03-15T21:28:51.587Z,13.13
2023-03-15T21:33:54.652Z,14.52
2023-03-15T21:38:57.527Z,15.00
2023-03-15T21:44:00.173Z,17.02
2023-03-15T21:49:02.895Z,15.10
2023-03-15T21:54:05.731Z,15.23
2023-03-15T21:59:08.511Z,15.82
2023-03-15T22:04:11.583Z,18.63
2023-03-15T22:09:14.249Z,20.60
2023-03-15T22:14:17.131Z,18.87
2023-03-15T22:19:19.927Z,18.08
2023-03-15T22:24:22.600Z,19.80
2023-03-15T22:29:25.444Z,17.53
2023-03-15T22:34:28.391Z,18.65
2023-03-15T22:39:35.505Z,17.40
2023-03-15T22:44:38.103Z,17.63
2023-03-15T22:49:40.913Z,18.30
2023-03-15T22:54:43.939Z,15.83
2023-03-15T22:59:46.686Z,18.63
2023-03-15T23:04:49.318Z,15.27
2023-03-15T23:09:51.897Z,17.10
2023-03-15T23:14:54.732Z,16.88
2023-03-15T23:19:57.336Z,15.67
2023-03-15T23:24:59.860Z,17.80
2023-03-15T23:30:02.759Z,14.30
2023-03-15T23:35:07.588Z,15.48
2023-03-15T23:40:15.427Z,14.68
2023-03-15T23:45:18.268Z,11.43
2023-03-15T23:50:21.537Z,13.05
2023-03-15T23:55:24.920Z,13.33
